Aérodrome :
LOGIN :

S'inscrire | Disclaimer

   EN    FR    IT 

 










Légende :    VFR   VFR Marginal   IFR   IFR Intensif   IFR Très Intensif
Visi : 
Plafond : 
>= 8 km
>= 3000ft
5 à 8 km
1000 à 3000 ft
1500m à 5 km
500 à 1000 ft
800 à 1500m
200 à 500 ft
< 800m
< 200 ft
Symboles :   Orages  Brouillard  Fortes neiges  Fortes précipitations  Vent > 20 kt
SIGMETs :   Divers  Orages  Givrage  Turbulence  Onde Orograph.  Cendres Volcan.






- Altitude de l'aérodrome : 273 ft


EGXT - RAF Wittering Stamford

DERNIER METAR :
  • 280550Z AUTO 30007KT 9999 NCD 07/05 Q1012

METARs EXPIRÉS :
  • 280450Z AUTO 31007KT 9999 BKN027/// 08/06 Q1012
  • 280350Z AUTO 32007KT 9999 OVC027/// 09/06 Q1012

TAF TAF EGXT
Valide du 28 à 06h jusqu'au 28 à 15h UTC


280433Z 2806/2815 31005KT 9999 BKN030
PROB30
TEMPO 2806/2808 SCT014 BKN018



MET'MAP, la Météo Aéronautique d'un coup d'oeil ! - Copyright ORBIFLY Décembre 2007 - Disclaimer

ORBIFLY MET'MAP TEAM :

Programmation & Développement : Alexandra Zaïnal
Sur une idée originale de : Baudouin d'Aumeries
Assistance à la programmation : Marc-Olivier Méhu
Soutien technique & logistique : Manuel Goepfert

Contact : metmap@orbifly.com




SOURCES & CREDITS :

   NOAA